sensor_id;sensor_type;location;lat;lon;timestamp;pressure;altitude;pressure_sealevel;temperature;humidity
53647;BME280;39550;52.230;5.194;2024-02-14T00:02:16;101105.19;;;6.09;98.76
53647;BME280;39550;52.230;5.194;2024-02-14T00:04:41;101097.50;;;6.09;98.59
53647;BME280;39550;52.230;5.194;2024-02-14T00:07:06;101095.84;;;6.11;98.46
53647;BME280;39550;52.230;5.194;2024-02-14T00:09:31;101094.97;;;6.09;98.63
53647;BME280;39550;52.230;5.194;2024-02-14T00:11:57;101090.69;;;6.10;98.55
53647;BME280;39550;52.230;5.194;2024-02-14T00:14:22;101093.25;;;6.10;98.17
53647;BME280;39550;52.230;5.194;2024-02-14T00:16:47;101091.56;;;6.10;98.68
53647;BME280;39550;52.230;5.194;2024-02-14T00:19:13;101086.44;;;6.10;98.63
53647;BME280;39550;52.230;5.194;2024-02-14T00:21:39;101073.56;;;6.07;98.69
53647;BME280;39550;52.230;5.194;2024-02-14T00:24:04;101086.56;;;6.13;98.15
53647;BME280;39550;52.230;5.194;2024-02-14T00:26:31;101085.66;;;6.13;98.94
53647;BME280;39550;52.230;5.194;2024-02-14T00:28:56;101070.22;;;6.10;98.61
53647;BME280;39550;52.230;5.194;2024-02-14T00:31:21;101068.63;;;6.13;97.91
53647;BME280;39550;52.230;5.194;2024-02-14T00:33:47;101069.44;;;6.12;98.25
53647;BME280;39550;52.230;5.194;2024-02-14T00:36:12;101061.81;;;6.14;97.96
53647;BME280;39550;52.230;5.194;2024-02-14T00:38:37;101064.34;;;6.12;98.83
53647;BME280;39550;52.230;5.194;2024-02-14T00:41:03;101056.63;;;6.11;98.38
53647;BME280;39550;52.230;5.194;2024-02-14T00:43:28;101052.34;;;6.11;98.15
53647;BME280;39550;52.230;5.194;2024-02-14T00:45:53;101065.41;;;6.19;98.29
53647;BME280;39550;52.230;5.194;2024-02-14T00:48:19;101062.88;;;6.21;97.58
53647;BME280;39550;52.230;5.194;2024-02-14T00:50:44;101050.91;;;6.20;97.75
53647;BME280;39550;52.230;5.194;2024-02-14T00:53:10;101053.44;;;6.20;97.73
53647;BME280;39550;52.230;5.194;2024-02-14T00:55:36;101053.44;;;6.20;98.52
53647;BME280;39550;52.230;5.194;2024-02-14T00:58:01;101058.50;;;6.17;97.83
53647;BME280;39550;52.230;5.194;2024-02-14T01:00:27;101055.13;;;6.18;98.30
53647;BME280;39550;52.230;5.194;2024-02-14T01:02:52;101053.44;;;6.20;98.47
53647;BME280;39550;52.230;5.194;2024-02-14T01:05:17;101049.19;;;6.20;98.21
53647;BME280;39550;52.230;5.194;2024-02-14T01:07:43;101036.22;;;6.14;97.92
53647;BME280;39550;52.230;5.194;2024-02-14T01:10:08;101051.81;;;6.22;98.51
53647;BME280;39550;52.230;5.194;2024-02-14T01:12:34;101047.56;;;6.22;97.95
53647;BME280;39550;52.230;5.194;2024-02-14T01:15:00;101051.81;;;6.22;97.84
53647;BME280;39550;52.230;5.194;2024-02-14T01:17:25;101050.97;;;6.23;98.91
53647;BME280;39550;52.230;5.194;2024-02-14T01:19:50;101051.88;;;6.23;98.50
53647;BME280;39550;52.230;5.194;2024-02-14T01:22:16;101046.72;;;6.22;98.24
53647;BME280;39550;52.230;5.194;2024-02-14T01:24:44;101047.59;;;6.24;97.93
53647;BME280;39550;52.230;5.194;2024-02-14T01:27:10;101049.34;;;6.25;98.50
53647;BME280;39550;52.230;5.194;2024-02-14T01:29:35;101051.09;;;6.26;98.61
53647;BME280;39550;52.230;5.194;2024-02-14T01:32:01;101055.34;;;6.27;98.65
53647;BME280;39550;52.230;5.194;2024-02-14T01:34:26;101049.44;;;6.28;98.47
53647;BME280;39550;52.230;5.194;2024-02-14T01:36:53;101058.03;;;6.30;98.63
53647;BME280;39550;52.230;5.194;2024-02-14T01:39:19;101050.19;;;6.25;98.66
53647;BME280;39550;52.230;5.194;2024-02-14T01:41:48;101058.75;;;6.26;98.68
53647;BME280;39550;52.230;5.194;2024-02-14T01:44:15;101051.16;;;6.29;98.33
53647;BME280;39550;52.230;5.194;2024-02-14T01:46:41;101049.50;;;6.31;98.24
53647;BME280;39550;52.230;5.194;2024-02-14T01:49:08;101045.97;;;6.26;98.82
53647;BME280;39550;52.230;5.194;2024-02-14T01:51:35;101056.22;;;6.26;98.16
53647;BME280;39550;52.230;5.194;2024-02-14T01:54:02;101061.31;;;6.26;98.35
53647;BME280;39550;52.230;5.194;2024-02-14T01:56:29;101064.69;;;6.25;98.88
53647;BME280;39550;52.230;5.194;2024-02-14T01:58:55;101052.72;;;6.24;99.27
53647;BME280;39550;52.230;5.194;2024-02-14T02:01:21;101062.13;;;6.25;97.92
53647;BME280;39550;52.230;5.194;2024-02-14T02:03:48;101059.59;;;6.25;98.68
53647;BME280;39550;52.230;5.194;2024-02-14T02:06:13;101064.69;;;6.25;98.61
53647;BME280;39550;52.230;5.194;2024-02-14T02:08:44;101049.25;;;6.22;99.21
53647;BME280;39550;52.230;5.194;2024-02-14T02:11:09;101058.69;;;6.24;99.26
53647;BME280;39550;52.230;5.194;2024-02-14T02:13:35;101059.59;;;6.25;99.43
53647;BME280;39550;52.230;5.194;2024-02-14T02:16:02;101059.59;;;6.25;99.04
53647;BME280;39550;52.230;5.194;2024-02-14T02:18:30;101068.94;;;6.24;99.05
53647;BME280;39550;52.230;5.194;2024-02-14T02:20:55;101063.00;;;6.25;99.15
53647;BME280;39550;52.230;5.194;2024-02-14T02:23:21;101059.59;;;6.25;99.00
53647;BME280;39550;52.230;5.194;2024-02-14T02:25:47;101068.16;;;6.27;99.22
53647;BME280;39550;52.230;5.194;2024-02-14T02:28:12;101069.91;;;6.28;98.60
53647;BME280;39550;52.230;5.194;2024-02-14T02:30:38;101056.97;;;6.23;98.64
53647;BME280;39550;52.230;5.194;2024-02-14T02:33:04;101067.34;;;6.28;98.73
53647;BME280;39550;52.230;5.194;2024-02-14T02:35:29;101066.47;;;6.27;99.80
53647;BME280;39550;52.230;5.194;2024-02-14T02:37:55;101069.09;;;6.29;99.12
53647;BME280;39550;52.230;5.194;2024-02-14T02:40:20;101071.66;;;6.29;98.83
53647;BME280;39550;52.230;5.194;2024-02-14T02:42:49;101066.53;;;6.29;99.24
53647;BME280;39550;52.230;5.194;2024-02-14T02:45:15;101071.66;;;6.29;99.35
53647;BME280;39550;52.230;5.194;2024-02-14T02:47:40;101075.06;;;6.29;98.74
53647;BME280;39550;52.230;5.194;2024-02-14T02:50:06;101072.50;;;6.29;98.64
53647;BME280;39550;52.230;5.194;2024-02-14T02:52:33;101065.59;;;6.27;99.38
53647;BME280;39550;52.230;5.194;2024-02-14T02:54:58;101074.19;;;6.29;98.37
53647;BME280;39550;52.230;5.194;2024-02-14T02:57:24;101076.00;;;6.32;98.85
53647;BME280;39550;52.230;5.194;2024-02-14T02:59:51;101061.31;;;6.26;98.60
53647;BME280;39550;52.230;5.194;2024-02-14T03:02:17;101082.13;;;6.38;98.38
53647;BME280;39550;52.230;5.194;2024-02-14T03:04:44;101067.91;;;6.18;99.22
53647;BME280;39550;52.230;5.194;2024-02-14T03:07:10;101078.38;;;6.27;98.87
53647;BME280;39550;52.230;5.194;2024-02-14T03:09:35;101088.75;;;6.30;98.99
53647;BME280;39550;52.230;5.194;2024-02-14T03:12:02;101080.13;;;6.28;99.69
53647;BME280;39550;52.230;5.194;2024-02-14T03:14:29;101076.69;;;6.26;98.96
53647;BME280;39550;52.230;5.194;2024-02-14T03:16:57;101072.41;;;6.26;99.21
53647;BME280;39550;52.230;5.194;2024-02-14T03:19:24;101069.81;;;6.25;99.14
53647;BME280;39550;52.230;5.194;2024-02-14T03:21:49;101083.44;;;6.24;99.24
53647;BME280;39550;52.230;5.194;2024-02-14T03:24:15;101080.06;;;6.25;99.63
53647;BME280;39550;52.230;5.194;2024-02-14T03:26:40;101092.03;;;6.26;99.73
53647;BME280;39550;52.230;5.194;2024-02-14T03:29:07;101079.28;;;6.27;99.56
53647;BME280;39550;52.230;5.194;2024-02-14T03:31:32;101088.75;;;6.30;99.87
53647;BME280;39550;52.230;5.194;2024-02-14T03:33:57;101090.47;;;6.31;99.30
53647;BME280;39550;52.230;5.194;2024-02-14T03:36:23;101096.53;;;6.35;99.20
53647;BME280;39550;52.230;5.194;2024-02-14T03:38:49;101092.28;;;6.35;98.70
53647;BME280;39550;52.230;5.194;2024-02-14T03:41:14;101095.72;;;6.36;99.26
53647;BME280;39550;52.230;5.194;2024-02-14T03:43:40;101092.28;;;6.35;98.52
53647;BME280;39550;52.230;5.194;2024-02-14T03:46:05;101095.69;;;6.34;99.17
53647;BME280;39550;52.230;5.194;2024-02-14T03:48:30;101097.41;;;6.35;98.76
53647;BME280;39550;52.230;5.194;2024-02-14T03:50:56;101093.06;;;6.33;99.08
53647;BME280;39550;52.230;5.194;2024-02-14T03:53:22;101105.06;;;6.35;98.87
53647;BME280;39550;52.230;5.194;2024-02-14T03:55:47;101102.53;;;6.35;99.00
53647;BME280;39550;52.230;5.194;2024-02-14T03:58:14;101104.25;;;6.36;99.17
53647;BME280;39550;52.230;5.194;2024-02-14T04:00:41;101099.16;;;6.36;99.45
53647;BME280;39550;52.230;5.194;2024-02-14T04:03:11;101105.94;;;6.34;99.45
53647;BME280;39550;52.230;5.194;2024-02-14T04:05:37;101109.38;;;6.36;98.67
53647;BME280;39550;52.230;5.194;2024-02-14T04:08:03;101109.38;;;6.36;98.91
53647;BME280;39550;52.230;5.194;2024-02-14T04:10:28;101114.50;;;6.36;99.18
53647;BME280;39550;52.230;5.194;2024-02-14T04:12:53;101111.13;;;6.37;98.72
53647;BME280;39550;52.230;5.194;2024-02-14T04:15:18;101106.00;;;6.37;99.08
53647;BME280;39550;52.230;5.194;2024-02-14T04:17:44;101110.25;;;6.37;98.77
53647;BME280;39550;52.230;5.194;2024-02-14T04:20:09;101112.84;;;6.38;99.67
53647;BME280;39550;52.230;5.194;2024-02-14T04:22:35;101117.97;;;6.38;99.24
53647;BME280;39550;52.230;5.194;2024-02-14T04:25:00;101119.72;;;6.39;99.63
53647;BME280;39550;52.230;5.194;2024-02-14T04:27:25;101103.22;;;6.29;99.17
53647;BME280;39550;52.230;5.194;2024-02-14T04:29:50;101123.09;;;6.38;99.16
53647;BME280;39550;52.230;5.194;2024-02-14T04:32:16;101123.97;;;6.39;99.26
53647;BME280;39550;52.230;5.194;2024-02-14T04:34:42;101135.06;;;6.39;100.00
53647;BME280;39550;52.230;5.194;2024-02-14T04:37:08;101132.53;;;6.41;99.31
53647;BME280;39550;52.230;5.194;2024-02-14T04:39:37;101141.94;;;6.40;99.04
53647;BME280;39550;52.230;5.194;2024-02-14T04:42:03;101136.81;;;6.40;99.37
53647;BME280;39550;52.230;5.194;2024-02-14T04:44:29;101140.25;;;6.42;99.92
53647;BME280;39550;52.230;5.194;2024-02-14T04:46:54;101136.00;;;6.41;99.41
53647;BME280;39550;52.230;5.194;2024-02-14T04:49:21;101140.25;;;6.42;99.19
53647;BME280;39550;52.230;5.194;2024-02-14T04:51:46;101141.94;;;6.40;99.60
53647;BME280;39550;52.230;5.194;2024-02-14T04:54:11;101144.50;;;6.40;99.39
53647;BME280;39550;52.230;5.194;2024-02-14T04:56:38;101149.59;;;6.40;99.87
53647;BME280;39550;52.230;5.194;2024-02-14T04:59:03;101148.78;;;6.41;100.00
53647;BME280;39550;52.230;5.194;2024-02-14T05:01:30;101154.69;;;6.39;99.98
53647;BME280;39550;52.230;5.194;2024-02-14T05:03:55;101156.28;;;6.35;100.00
53647;BME280;39550;52.230;5.194;2024-02-14T05:06:20;101156.31;;;6.37;99.45
53647;BME280;39550;52.230;5.194;2024-02-14T05:08:46;101153.75;;;6.37;99.86
53647;BME280;39550;52.230;5.194;2024-02-14T05:11:11;101163.19;;;6.38;100.00
53647;BME280;39550;52.230;5.194;2024-02-14T05:13:36;101150.34;;;6.36;99.90
53647;BME280;39550;52.230;5.194;2024-02-14T05:16:04;101165.78;;;6.39;100.00
53647;BME280;39550;52.230;5.194;2024-02-14T05:18:29;101154.72;;;6.40;99.71
53647;BME280;39550;52.230;5.194;2024-02-14T05:20:54;101165.88;;;6.42;99.71
53647;BME280;39550;52.230;5.194;2024-02-14T05:23:20;101171.00;;;6.42;100.00
53647;BME280;39550;52.230;5.194;2024-02-14T05:25:45;101165.88;;;6.42;100.00
53647;BME280;39550;52.230;5.194;2024-02-14T05:28:11;101177.03;;;6.44;100.00
53647;BME280;39550;52.230;5.194;2024-02-14T05:30:40;101172.66;;;6.40;100.00
53647;BME280;39550;52.230;5.194;2024-02-14T05:33:05;101174.47;;;6.44;100.00
53647;BME280;39550;52.230;5.194;2024-02-14T05:35:31;101174.47;;;6.44;99.89
53647;BME280;39550;52.230;5.194;2024-02-14T05:37:56;101175.34;;;6.45;100.00
53647;BME280;39550;52.230;5.194;2024-02-14T05:40:21;101171.88;;;6.43;100.00
53647;BME280;39550;52.230;5.194;2024-02-14T05:42:47;101178.81;;;6.47;100.00
53647;BME280;39550;52.230;5.194;2024-02-14T05:45:12;101191.66;;;6.48;99.93
53647;BME280;39550;52.230;5.194;2024-02-14T05:47:38;101182.25;;;6.47;99.76
53647;BME280;39550;52.230;5.194;2024-02-14T05:50:05;101178.06;;;6.50;100.00
53647;BME280;39550;52.230;5.194;2024-02-14T05:52:30;101185.78;;;6.51;100.00
53647;BME280;39550;52.230;5.194;2024-02-14T05:54:55;101184.06;;;6.52;99.41
53647;BME280;39550;52.230;5.194;2024-02-14T05:57:21;101189.22;;;6.53;100.00
53647;BME280;39550;52.230;5.194;2024-02-14T05:59:49;101195.19;;;6.52;100.00
53647;BME280;39550;52.230;5.194;2024-02-14T06:02:14;101190.00;;;6.51;99.65
53647;BME280;39550;52.230;5.194;2024-02-14T06:04:39;101188.28;;;6.50;100.00
53647;BME280;39550;52.230;5.194;2024-02-14T06:07:07;101195.03;;;6.47;100.00
53647;BME280;39550;52.230;5.194;2024-02-14T06:09:35;101194.28;;;6.50;100.00
53647;BME280;39550;52.230;5.194;2024-02-14T06:12:00;101195.13;;;6.51;100.00
53647;BME280;39550;52.230;5.194;2024-02-14T06:14:26;101188.25;;;6.48;100.00
53647;BME280;39550;52.230;5.194;2024-02-14T06:16:51;101198.53;;;6.50;100.00
53647;BME280;39550;52.230;5.194;2024-02-14T06:19:17;101203.66;;;6.50;100.00
53647;BME280;39550;52.230;5.194;2024-02-14T06:21:42;101211.38;;;6.51;100.00
53647;BME280;39550;52.230;5.194;2024-02-14T06:24:07;101209.69;;;6.52;99.94
53647;BME280;39550;52.230;5.194;2024-02-14T06:26:35;101212.25;;;6.52;100.00
53647;BME280;39550;52.230;5.194;2024-02-14T06:29:00;101211.41;;;6.53;99.98
53647;BME280;39550;52.230;5.194;2024-02-14T06:31:26;101220.84;;;6.54;100.00
53647;BME280;39550;52.230;5.194;2024-02-14T06:33:51;101219.09;;;6.53;100.00
53647;BME280;39550;52.230;5.194;2024-02-14T06:36:16;101225.09;;;6.53;100.00
53647;BME280;39550;52.230;5.194;2024-02-14T06:38:41;101232.75;;;6.53;100.00
53647;BME280;39550;52.230;5.194;2024-02-14T06:41:07;101225.00;;;6.50;100.00
53647;BME280;39550;52.230;5.194;2024-02-14T06:43:32;101236.09;;;6.51;100.00
53647;BME280;39550;52.230;5.194;2024-02-14T06:45:58;101230.97;;;6.51;100.00
53647;BME280;39550;52.230;5.194;2024-02-14T06:48:23;101240.41;;;6.52;100.00
53647;BME280;39550;52.230;5.194;2024-02-14T06:50:50;101237.84;;;6.52;100.00
53647;BME280;39550;52.230;5.194;2024-02-14T06:53:17;101237.06;;;6.54;100.00
53647;BME280;39550;52.230;5.194;2024-02-14T06:55:42;101231.94;;;6.54;100.00
53647;BME280;39550;52.230;5.194;2024-02-14T06:58:08;101237.06;;;6.54;100.00
53647;BME280;39550;52.230;5.194;2024-02-14T07:00:33;101237.94;;;6.55;100.00
53647;BME280;39550;52.230;5.194;2024-02-14T07:02:59;101243.03;;;6.55;100.00
53647;BME280;39550;52.230;5.194;2024-02-14T07:05:24;101236.22;;;6.54;100.00
53647;BME280;39550;52.230;5.194;2024-02-14T07:07:51;101252.44;;;6.54;100.00
53647;BME280;39550;52.230;5.194;2024-02-14T07:10:16;101244.78;;;6.56;100.00
53647;BME280;39550;52.230;5.194;2024-02-14T07:12:42;101261.94;;;6.58;100.00
53647;BME280;39550;52.230;5.194;2024-02-14T07:15:07;101244.09;;;6.61;100.00
53647;BME280;39550;52.230;5.194;2024-02-14T07:17:33;101246.66;;;6.61;100.00
53647;BME280;39550;52.230;5.194;2024-02-14T07:19:58;101249.22;;;6.61;100.00
53647;BME280;39550;52.230;5.194;2024-02-14T07:22:24;101264.59;;;6.61;100.00
53647;BME280;39550;52.230;5.194;2024-02-14T07:24:49;101262.00;;;6.60;100.00
53647;BME280;39550;52.230;5.194;2024-02-14T07:27:15;101253.19;;;6.52;100.00
53647;BME280;39550;52.230;5.194;2024-02-14T07:29:41;101268.84;;;6.61;100.00
53647;BME280;39550;52.230;5.194;2024-02-14T07:32:06;101267.13;;;6.60;100.00
53647;BME280;39550;52.230;5.194;2024-02-14T07:34:32;101264.56;;;6.60;100.00
53647;BME280;39550;52.230;5.194;2024-02-14T07:36:58;101263.75;;;6.61;100.00
53647;BME280;39550;52.230;5.194;2024-02-14T07:39:23;101262.00;;;6.60;100.00
53647;BME280;39550;52.230;5.194;2024-02-14T07:41:49;101269.69;;;6.60;100.00
53647;BME280;39550;52.230;5.194;2024-02-14T07:44:14;101267.97;;;6.60;100.00
53647;BME280;39550;52.230;5.194;2024-02-14T07:46:39;101266.31;;;6.61;100.00
53647;BME280;39550;52.230;5.194;2024-02-14T07:49:05;101261.13;;;6.59;100.00
53647;BME280;39550;52.230;5.194;2024-02-14T07:51:31;101274.84;;;6.61;100.00
53647;BME280;39550;52.230;5.194;2024-02-14T07:54:05;101270.59;;;6.62;100.00
53647;BME280;39550;52.230;5.194;2024-02-14T07:56:30;101275.81;;;6.65;100.00
53647;BME280;39550;52.230;5.194;2024-02-14T07:58:56;101280.16;;;6.68;100.00
53647;BME280;39550;52.230;5.194;2024-02-14T08:01:21;101274.31;;;6.72;100.00
53647;BME280;39550;52.230;5.194;2024-02-14T08:03:47;101290.50;;;6.71;100.00
53647;BME280;39550;52.230;5.194;2024-02-14T08:06:13;101285.34;;;6.69;100.00
53647;BME280;39550;52.230;5.194;2024-02-14T08:08:38;101280.28;;;6.72;100.00
53647;BME280;39550;52.230;5.194;2024-02-14T08:11:04;101287.94;;;6.71;100.00
53647;BME280;39550;52.230;5.194;2024-02-14T08:13:29;101289.63;;;6.70;100.00
53647;BME280;39550;52.230;5.194;2024-02-14T08:15:54;101289.63;;;6.70;100.00
53647;BME280;39550;52.230;5.194;2024-02-14T08:18:20;101290.47;;;6.69;100.00
53647;BME280;39550;52.230;5.194;2024-02-14T08:20:45;101293.88;;;6.70;100.00
53647;BME280;39550;52.230;5.194;2024-02-14T08:23:10;101298.13;;;6.69;100.00
53647;BME280;39550;52.230;5.194;2024-02-14T08:25:36;101301.50;;;6.68;100.00
53647;BME280;39550;52.230;5.194;2024-02-14T08:28:01;101300.69;;;6.69;100.00
53647;BME280;39550;52.230;5.194;2024-02-14T08:30:27;101302.38;;;6.69;100.00
53647;BME280;39550;52.230;5.194;2024-02-14T08:32:53;101303.25;;;6.69;100.00
53647;BME280;39550;52.230;5.194;2024-02-14T08:35:18;101300.34;;;6.86;100.00
53647;BME280;39550;52.230;5.194;2024-02-14T08:37:43;101305.84;;;6.98;100.00
53647;BME280;39550;52.230;5.194;2024-02-14T08:40:09;101305.84;;;6.98;100.00
53647;BME280;39550;52.230;5.194;2024-02-14T08:42:37;101295.31;;;6.89;100.00
53647;BME280;39550;52.230;5.194;2024-02-14T08:45:02;101303.03;;;6.90;100.00
53647;BME280;39550;52.230;5.194;2024-02-14T08:47:32;101298.69;;;6.88;100.00
53647;BME280;39550;52.230;5.194;2024-02-14T08:49:58;101300.34;;;6.86;100.00
53647;BME280;39550;52.230;5.194;2024-02-14T08:52:23;101312.22;;;6.84;100.00
53647;BME280;39550;52.230;5.194;2024-02-14T08:54:48;101304.50;;;6.82;100.00
53647;BME280;39550;52.230;5.194;2024-02-14T08:57:13;101306.19;;;6.81;100.00
53647;BME280;39550;52.230;5.194;2024-02-14T08:59:39;101295.75;;;6.75;100.00
53647;BME280;39550;52.230;5.194;2024-02-14T09:02:05;101310.47;;;6.82;100.00
53647;BME280;39550;52.230;5.194;2024-02-14T09:04:31;101297.53;;;6.78;100.00
53647;BME280;39550;52.230;5.194;2024-02-14T09:06:56;101308.75;;;6.81;100.00
53647;BME280;39550;52.230;5.194;2024-02-14T09:09:21;101323.38;;;6.84;100.00
53647;BME280;39550;52.230;5.194;2024-02-14T09:11:47;101320.84;;;6.86;100.00
53647;BME280;39550;52.230;5.194;2024-02-14T09:14:12;101328.56;;;6.87;100.00
53647;BME280;39550;52.230;5.194;2024-02-14T09:16:38;101330.19;;;6.85;100.00
53647;BME280;39550;52.230;5.194;2024-02-14T09:19:04;101329.31;;;6.83;100.00
53647;BME280;39550;52.230;5.194;2024-02-14T09:21:32;101334.56;;;6.88;100.00
53647;BME280;39550;52.230;5.194;2024-02-14T09:23:59;101337.16;;;6.89;100.00
53647;BME280;39550;52.230;5.194;2024-02-14T09:26:25;101337.16;;;6.89;100.00
53647;BME280;39550;52.230;5.194;2024-02-14T09:28:51;101335.44;;;6.88;100.00
53647;BME280;39550;52.230;5.194;2024-02-14T09:31:20;101328.50;;;6.84;100.00
53647;BME280;39550;52.230;5.194;2024-02-14T09:33:49;101341.50;;;6.92;100.00
53647;BME280;39550;52.230;5.194;2024-02-14T09:36:15;101342.41;;;6.92;100.00
53647;BME280;39550;52.230;5.194;2024-02-14T09:38:41;101333.81;;;6.92;100.00
53647;BME280;39550;52.230;5.194;2024-02-14T09:43:47;101327.75;;;6.88;100.00
53647;BME280;39550;52.230;5.194;2024-02-14T09:46:13;101334.63;;;6.91;100.00
53647;BME280;39550;52.230;5.194;2024-02-14T09:48:40;101334.63;;;6.91;100.00
53647;BME280;39550;52.230;5.194;2024-02-14T09:51:09;101338.91;;;6.90;100.00
53647;BME280;39550;52.230;5.194;2024-02-14T09:53:34;101350.09;;;6.92;100.00
53647;BME280;39550;52.230;5.194;2024-02-14T09:56:02;101341.50;;;6.92;100.00
53647;BME280;39550;52.230;5.194;2024-02-14T09:58:27;101341.50;;;6.92;100.00
53647;BME280;39550;52.230;5.194;2024-02-14T10:00:59;101356.06;;;6.93;100.00
53647;BME280;39550;52.230;5.194;2024-02-14T10:03:25;101353.50;;;6.93;100.00
53647;BME280;39550;52.230;5.194;2024-02-14T10:05:51;101347.56;;;6.94;100.00
53647;BME280;39550;52.230;5.194;2024-02-14T10:08:18;101345.00;;;6.94;100.00
53647;BME280;39550;52.230;5.194;2024-02-14T10:10:43;101344.16;;;6.95;100.00
53647;BME280;39550;52.230;5.194;2024-02-14T10:13:09;101339.88;;;6.94;100.00
53647;BME280;39550;52.230;5.194;2024-02-14T10:15:34;101348.47;;;6.96;100.00
53647;BME280;39550;52.230;5.194;2024-02-14T10:18:00;101345.09;;;6.97;100.00
53647;BME280;39550;52.230;5.194;2024-02-14T10:20:26;101356.22;;;6.97;100.00
53647;BME280;39550;52.230;5.194;2024-02-14T10:22:52;101351.97;;;6.98;100.00
53647;BME280;39550;52.230;5.194;2024-02-14T10:25:17;101347.75;;;7.00;100.00
53647;BME280;39550;52.230;5.194;2024-02-14T10:27:44;101357.25;;;7.04;100.00
53647;BME280;39550;52.230;5.194;2024-02-14T10:30:11;101352.97;;;7.03;100.00
53647;BME280;39550;52.230;5.194;2024-02-14T10:32:38;101355.56;;;7.05;100.00
53647;BME280;39550;52.230;5.194;2024-02-14T10:35:05;101353.88;;;7.05;100.00
53647;BME280;39550;52.230;5.194;2024-02-14T10:37:37;101359.00;;;7.05;100.00
53647;BME280;39550;52.230;5.194;2024-02-14T10:40:03;101350.31;;;7.00;100.00
53647;BME280;39550;52.230;5.194;2024-02-14T10:42:30;101365.78;;;7.03;100.00
53647;BME280;39550;52.230;5.194;2024-02-14T10:44:56;101364.06;;;7.02;100.00
53647;BME280;39550;52.230;5.194;2024-02-14T10:47:25;101361.59;;;7.05;100.00
53647;BME280;39550;52.230;5.194;2024-02-14T10:49:53;101359.00;;;7.05;100.00
53647;BME280;39550;52.230;5.194;2024-02-14T10:52:21;101357.25;;;7.04;100.00
53647;BME280;39550;52.230;5.194;2024-02-14T10:54:52;101369.34;;;7.08;100.00
53647;BME280;39550;52.230;5.194;2024-02-14T10:57:24;101371.00;;;7.06;100.00
53647;BME280;39550;52.230;5.194;2024-02-14T10:59:51;101363.31;;;7.06;100.00
53647;BME280;39550;52.230;5.194;2024-02-14T11:02:17;101357.34;;;7.07;100.00
53647;BME280;39550;52.230;5.194;2024-02-14T11:04:45;101348.63;;;7.01;100.00
53647;BME280;39550;52.230;5.194;2024-02-14T11:07:10;101356.53;;;7.08;100.00
53647;BME280;39550;52.230;5.194;2024-02-14T11:09:36;101353.97;;;7.08;100.00
53647;BME280;39550;52.230;5.194;2024-02-14T11:12:02;101349.66;;;7.07;100.00
53647;BME280;39550;52.230;5.194;2024-02-14T11:14:34;101355.72;;;7.09;100.00
53647;BME280;39550;52.230;5.194;2024-02-14T11:17:01;101344.66;;;7.10;100.00
53647;BME280;39550;52.230;5.194;2024-02-14T11:19:31;101348.94;;;7.11;100.00
53647;BME280;39550;52.230;5.194;2024-02-14T11:22:10;101335.13;;;7.06;100.00
53647;BME280;39550;52.230;5.194;2024-02-14T11:24:38;101335.31;;;7.12;100.00
53647;BME280;39550;52.230;5.194;2024-02-14T11:27:03;101337.88;;;7.12;100.00
53647;BME280;39550;52.230;5.194;2024-02-14T11:29:34;101337.81;;;7.11;100.00
53647;BME280;39550;52.230;5.194;2024-02-14T11:32:00;101340.44;;;7.12;100.00
53647;BME280;39550;52.230;5.194;2024-02-14T11:34:26;101329.22;;;7.09;100.00
53647;BME280;39550;52.230;5.194;2024-02-14T11:36:52;101342.19;;;7.13;100.00
53647;BME280;39550;52.230;5.194;2024-02-14T11:39:17;101335.38;;;7.15;100.00
53647;BME280;39550;52.230;5.194;2024-02-14T11:41:42;101342.34;;;7.20;100.00
53647;BME280;39550;52.230;5.194;2024-02-14T11:44:08;101339.91;;;7.23;100.00
53647;BME280;39550;52.230;5.194;2024-02-14T11:46:35;101336.44;;;7.22;100.00
53647;BME280;39550;52.230;5.194;2024-02-14T11:49:04;101339.00;;;7.22;100.00
53647;BME280;39550;52.230;5.194;2024-02-14T11:51:31;101330.47;;;7.22;100.00
53647;BME280;39550;52.230;5.194;2024-02-14T11:53:57;101324.91;;;7.37;100.00
53647;BME280;39550;52.230;5.194;2024-02-14T11:56:32;101323.66;;;7.53;100.00
53647;BME280;39550;52.230;5.194;2024-02-14T11:59:02;101329.59;;;7.52;100.00
53647;BME280;39550;52.230;5.194;2024-02-14T12:01:30;101329.41;;;7.44;100.00
53647;BME280;39550;52.230;5.194;2024-02-14T12:03:56;101330.13;;;7.40;100.00
53647;BME280;39550;52.230;5.194;2024-02-14T12:06:22;101332.66;;;7.38;100.00
53647;BME280;39550;52.230;5.194;2024-02-14T12:08:47;101320.66;;;7.37;100.00
53647;BME280;39550;52.230;5.194;2024-02-14T12:11:13;101317.16;;;7.35;100.00
53647;BME280;39550;52.230;5.194;2024-02-14T12:13:38;101320.53;;;7.32;100.00
53647;BME280;39550;52.230;5.194;2024-02-14T12:16:08;101323.09;;;7.32;100.00
53647;BME280;39550;52.230;5.194;2024-02-14T12:18:33;101322.19;;;7.32;100.00
53647;BME280;39550;52.230;5.194;2024-02-14T12:21:06;101321.34;;;7.31;100.00
53647;BME280;39550;52.230;5.194;2024-02-14T12:23:34;101328.16;;;7.31;100.00
53647;BME280;39550;52.230;5.194;2024-02-14T12:26:04;101326.47;;;7.31;100.00
53647;BME280;39550;52.230;5.194;2024-02-14T12:28:30;101321.34;;;7.31;100.00
53647;BME280;39550;52.230;5.194;2024-02-14T12:30:57;101310.19;;;7.31;100.00
53647;BME280;39550;52.230;5.194;2024-02-14T12:33:24;101310.19;;;7.31;100.00
53647;BME280;39550;52.230;5.194;2024-02-14T12:35:50;101317.00;;;7.29;100.00
53647;BME280;39550;52.230;5.194;2024-02-14T12:38:17;101318.78;;;7.31;100.00
53647;BME280;39550;52.230;5.194;2024-02-14T12:40:43;101320.47;;;7.31;100.00
53647;BME280;39550;52.230;5.194;2024-02-14T12:43:13;101313.63;;;7.30;100.00
53647;BME280;39550;52.230;5.194;2024-02-14T12:45:40;101315.31;;;7.31;100.00
53647;BME280;39550;52.230;5.194;2024-02-14T12:48:06;101312.84;;;7.32;100.00
53647;BME280;39550;52.230;5.194;2024-02-14T12:50:33;101319.69;;;7.33;100.00
53647;BME280;39550;52.230;5.194;2024-02-14T12:53:00;101317.16;;;7.35;100.00